sensor_id;sensor_type;location;lat;lon;timestamp;P1;durP1;ratioP1;P2;durP2;ratioP2
48667;SDS011;34453;52.198;5.004;2022-08-01T00:00:34;6.68;;;6.03;;
48667;SDS011;34453;52.198;5.004;2022-08-01T00:02:59;8.65;;;6.25;;
48667;SDS011;34453;52.198;5.004;2022-08-01T00:05:25;12.02;;;6.78;;
48667;SDS011;34453;52.198;5.004;2022-08-01T00:07:51;7.57;;;6.68;;
48667;SDS011;34453;52.198;5.004;2022-08-01T00:10:16;7.43;;;6.70;;
48667;SDS011;34453;52.198;5.004;2022-08-01T00:12:43;9.80;;;7.70;;
48667;SDS011;34453;52.198;5.004;2022-08-01T00:15:11;9.23;;;7.63;;
48667;SDS011;34453;52.198;5.004;2022-08-01T00:17:38;8.82;;;7.45;;
48667;SDS011;34453;52.198;5.004;2022-08-01T00:20:06;11.57;;;8.18;;
48667;SDS011;34453;52.198;5.004;2022-08-01T00:22:34;12.07;;;8.25;;
48667;SDS011;34453;52.198;5.004;2022-08-01T00:25:00;9.07;;;8.20;;
48667;SDS011;34453;52.198;5.004;2022-08-01T00:27:28;11.68;;;8.73;;
48667;SDS011;34453;52.198;5.004;2022-08-01T00:29:53;9.02;;;8.15;;
48667;SDS011;34453;52.198;5.004;2022-08-01T00:32:19;11.93;;;9.50;;
48667;SDS011;34453;52.198;5.004;2022-08-01T00:34:44;17.00;;;11.00;;
48667;SDS011;34453;52.198;5.004;2022-08-01T00:37:10;10.38;;;9.38;;
48667;SDS011;34453;52.198;5.004;2022-08-01T00:39:35;15.85;;;10.15;;
48667;SDS011;34453;52.198;5.004;2022-08-01T00:42:07;10.73;;;9.70;;
48667;SDS011;34453;52.198;5.004;2022-08-01T00:44:34;13.48;;;8.95;;
48667;SDS011;34453;52.198;5.004;2022-08-01T00:47:00;14.27;;;9.57;;
48667;SDS011;34453;52.198;5.004;2022-08-01T00:49:26;14.10;;;9.98;;
48667;SDS011;34453;52.198;5.004;2022-08-01T00:51:52;13.20;;;10.30;;
48667;SDS011;34453;52.198;5.004;2022-08-01T00:54:18;14.43;;;10.20;;
48667;SDS011;34453;52.198;5.004;2022-08-01T00:56:43;12.07;;;9.25;;
48667;SDS011;34453;52.198;5.004;2022-08-01T00:59:09;11.18;;;8.68;;
48667;SDS011;34453;52.198;5.004;2022-08-01T01:01:36;9.20;;;8.30;;
48667;SDS011;34453;52.198;5.004;2022-08-01T01:04:02;10.65;;;8.65;;
48667;SDS011;34453;52.198;5.004;2022-08-01T01:06:36;14.27;;;8.75;;
48667;SDS011;34453;52.198;5.004;2022-08-01T01:17:35;15.68;;;8.10;;
48667;SDS011;34453;52.198;5.004;2022-08-01T01:20:13;12.23;;;8.30;;
48667;SDS011;34453;52.198;5.004;2022-08-01T01:30:53;13.50;;;7.40;;
48667;SDS011;34453;52.198;5.004;2022-08-01T01:33:22;7.28;;;6.63;;
48667;SDS011;34453;52.198;5.004;2022-08-01T01:35:51;6.32;;;5.63;;
48667;SDS011;34453;52.198;5.004;2022-08-01T01:38:22;7.18;;;6.50;;
48667;SDS011;34453;52.198;5.004;2022-08-01T01:40:51;6.20;;;5.60;;
48667;SDS011;34453;52.198;5.004;2022-08-01T01:43:18;6.63;;;4.95;;
48667;SDS011;34453;52.198;5.004;2022-08-01T01:45:46;4.43;;;4.13;;
48667;SDS011;34453;52.198;5.004;2022-08-01T01:48:13;3.72;;;3.42;;
48667;SDS011;34453;52.198;5.004;2022-08-01T01:50:45;4.18;;;3.50;;
48667;SDS011;34453;52.198;5.004;2022-08-01T01:53:13;5.40;;;3.95;;
48667;SDS011;34453;52.198;5.004;2022-08-01T01:55:41;3.90;;;3.70;;
48667;SDS011;34453;52.198;5.004;2022-08-01T01:58:12;3.88;;;3.50;;
48667;SDS011;34453;52.198;5.004;2022-08-01T02:00:38;4.90;;;4.43;;
48667;SDS011;34453;52.198;5.004;2022-08-01T02:03:08;4.68;;;4.32;;
48667;SDS011;34453;52.198;5.004;2022-08-01T02:05:35;8.38;;;5.35;;
48667;SDS011;34453;52.198;5.004;2022-08-01T02:08:02;5.65;;;4.97;;
48667;SDS011;34453;52.198;5.004;2022-08-01T02:10:29;4.72;;;4.40;;
48667;SDS011;34453;52.198;5.004;2022-08-01T02:12:57;5.80;;;4.90;;
48667;SDS011;34453;52.198;5.004;2022-08-01T02:15:24;9.88;;;5.32;;
48667;SDS011;34453;52.198;5.004;2022-08-01T02:17:51;6.53;;;4.93;;
48667;SDS011;34453;52.198;5.004;2022-08-01T02:20:19;5.65;;;5.15;;
48667;SDS011;34453;52.198;5.004;2022-08-01T02:22:59;6.00;;;4.50;;
48667;SDS011;34453;52.198;5.004;2022-08-01T02:25:34;5.45;;;5.05;;
48667;SDS011;34453;52.198;5.004;2022-08-01T02:28:09;7.30;;;5.88;;
48667;SDS011;34453;52.198;5.004;2022-08-01T02:30:39;5.95;;;5.45;;
48667;SDS011;34453;52.198;5.004;2022-08-01T02:33:12;5.85;;;5.35;;
48667;SDS011;34453;52.198;5.004;2022-08-01T02:35:42;7.93;;;6.10;;
48667;SDS011;34453;52.198;5.004;2022-08-01T02:38:11;6.15;;;5.57;;
48667;SDS011;34453;52.198;5.004;2022-08-01T02:40:40;6.07;;;5.57;;
48667;SDS011;34453;52.198;5.004;2022-08-01T02:43:09;7.32;;;6.63;;
48667;SDS011;34453;52.198;5.004;2022-08-01T02:45:37;9.07;;;6.57;;
48667;SDS011;34453;52.198;5.004;2022-08-01T02:48:17;8.57;;;7.18;;
48667;SDS011;34453;52.198;5.004;2022-08-01T02:50:45;8.07;;;7.28;;
48667;SDS011;34453;52.198;5.004;2022-08-01T02:53:13;7.63;;;6.93;;
48667;SDS011;34453;52.198;5.004;2022-08-01T02:55:42;9.55;;;7.20;;
48667;SDS011;34453;52.198;5.004;2022-08-01T02:58:10;7.53;;;6.82;;
48667;SDS011;34453;52.198;5.004;2022-08-01T03:00:37;8.43;;;7.78;;
48667;SDS011;34453;52.198;5.004;2022-08-01T03:03:05;11.48;;;8.88;;
48667;SDS011;34453;52.198;5.004;2022-08-01T03:05:33;9.02;;;7.65;;
48667;SDS011;34453;52.198;5.004;2022-08-01T03:08:00;8.38;;;7.68;;
48667;SDS011;34453;52.198;5.004;2022-08-01T03:10:27;9.63;;;7.10;;
48667;SDS011;34453;52.198;5.004;2022-08-01T03:12:55;7.10;;;6.60;;
48667;SDS011;34453;52.198;5.004;2022-08-01T03:15:24;7.47;;;6.82;;
48667;SDS011;34453;52.198;5.004;2022-08-01T03:17:52;7.15;;;6.55;;
48667;SDS011;34453;52.198;5.004;2022-08-01T03:20:21;6.82;;;6.30;;
48667;SDS011;34453;52.198;5.004;2022-08-01T03:22:49;8.57;;;7.40;;
48667;SDS011;34453;52.198;5.004;2022-08-01T03:25:18;11.90;;;6.47;;
48667;SDS011;34453;52.198;5.004;2022-08-01T03:27:45;10.85;;;7.57;;
48667;SDS011;34453;52.198;5.004;2022-08-01T03:30:22;7.05;;;6.47;;
48667;SDS011;34453;52.198;5.004;2022-08-01T03:32:50;7.85;;;7.05;;
48667;SDS011;34453;52.198;5.004;2022-08-01T03:35:15;6.38;;;5.88;;
48667;SDS011;34453;52.198;5.004;2022-08-01T03:37:45;7.05;;;6.30;;
48667;SDS011;34453;52.198;5.004;2022-08-01T03:43:02;7.50;;;6.88;;
48667;SDS011;34453;52.198;5.004;2022-08-01T03:45:35;10.90;;;6.78;;
48667;SDS011;34453;52.198;5.004;2022-08-01T03:48:05;8.85;;;6.85;;
48667;SDS011;34453;52.198;5.004;2022-08-01T03:50:35;8.00;;;5.78;;
48667;SDS011;34453;52.198;5.004;2022-08-01T03:53:04;7.00;;;6.32;;
48667;SDS011;34453;52.198;5.004;2022-08-01T03:55:34;10.35;;;5.85;;
48667;SDS011;34453;52.198;5.004;2022-08-01T03:58:03;8.07;;;6.10;;
48667;SDS011;34453;52.198;5.004;2022-08-01T04:00:30;6.47;;;5.75;;
48667;SDS011;34453;52.198;5.004;2022-08-01T04:02:56;10.80;;;6.55;;
48667;SDS011;34453;52.198;5.004;2022-08-01T04:05:23;7.15;;;5.95;;
48667;SDS011;34453;52.198;5.004;2022-08-01T04:07:49;7.43;;;5.80;;
48667;SDS011;34453;52.198;5.004;2022-08-01T04:10:22;7.72;;;5.93;;
48667;SDS011;34453;52.198;5.004;2022-08-01T04:12:48;7.20;;;6.70;;
48667;SDS011;34453;52.198;5.004;2022-08-01T04:15:14;8.88;;;5.85;;
48667;SDS011;34453;52.198;5.004;2022-08-01T04:17:39;7.97;;;6.85;;
48667;SDS011;34453;52.198;5.004;2022-08-01T04:20:05;6.80;;;6.18;;
48667;SDS011;34453;52.198;5.004;2022-08-01T04:22:31;6.78;;;5.80;;
48667;SDS011;34453;52.198;5.004;2022-08-01T04:24:57;6.43;;;5.93;;
48667;SDS011;34453;52.198;5.004;2022-08-01T04:27:28;4.30;;;4.00;;
48667;SDS011;34453;52.198;5.004;2022-08-01T04:29:56;2.50;;;2.33;;
48667;SDS011;34453;52.198;5.004;2022-08-01T04:32:23;2.28;;;2.15;;
48667;SDS011;34453;52.198;5.004;2022-08-01T04:34:52;2.65;;;1.25;;
48667;SDS011;34453;52.198;5.004;2022-08-01T04:37:22;1.42;;;1.42;;
48667;SDS011;34453;52.198;5.004;2022-08-01T04:39:48;1.33;;;1.23;;
48667;SDS011;34453;52.198;5.004;2022-08-01T04:42:17;2.45;;;1.35;;
48667;SDS011;34453;52.198;5.004;2022-08-01T04:44:42;1.73;;;1.30;;
48667;SDS011;34453;52.198;5.004;2022-08-01T04:47:08;3.17;;;1.52;;
48667;SDS011;34453;52.198;5.004;2022-08-01T04:49:34;1.50;;;1.40;;
48667;SDS011;34453;52.198;5.004;2022-08-01T04:52:00;1.50;;;1.40;;
48667;SDS011;34453;52.198;5.004;2022-08-01T04:54:26;2.17;;;2.00;;
48667;SDS011;34453;52.198;5.004;2022-08-01T04:56:53;1.50;;;1.40;;
48667;SDS011;34453;52.198;5.004;2022-08-01T04:59:23;2.42;;;2.30;;
48667;SDS011;34453;52.198;5.004;2022-08-01T05:02:08;1.40;;;1.40;;
48667;SDS011;34453;52.198;5.004;2022-08-01T05:04:36;1.73;;;1.70;;
48667;SDS011;34453;52.198;5.004;2022-08-01T05:07:02;2.03;;;1.92;;
48667;SDS011;34453;52.198;5.004;2022-08-01T05:09:29;2.10;;;1.90;;
48667;SDS011;34453;52.198;5.004;2022-08-01T05:11:55;2.05;;;1.95;;
48667;SDS011;34453;52.198;5.004;2022-08-01T05:14:23;1.80;;;1.80;;
48667;SDS011;34453;52.198;5.004;2022-08-01T05:16:50;2.33;;;2.17;;
48667;SDS011;34453;52.198;5.004;2022-08-01T05:19:16;3.95;;;2.10;;
48667;SDS011;34453;52.198;5.004;2022-08-01T05:21:41;2.28;;;2.17;;
48667;SDS011;34453;52.198;5.004;2022-08-01T05:24:07;2.40;;;2.20;;
48667;SDS011;34453;52.198;5.004;2022-08-01T05:26:32;2.40;;;2.20;;
48667;SDS011;34453;52.198;5.004;2022-08-01T05:28:58;2.40;;;2.30;;
48667;SDS011;34453;52.198;5.004;2022-08-01T05:31:24;2.67;;;2.45;;
48667;SDS011;34453;52.198;5.004;2022-08-01T05:33:49;5.10;;;2.25;;
48667;SDS011;34453;52.198;5.004;2022-08-01T05:36:15;3.05;;;2.80;;
48667;SDS011;34453;52.198;5.004;2022-08-01T05:38:40;3.45;;;2.95;;
48667;SDS011;34453;52.198;5.004;2022-08-01T05:41:06;6.35;;;3.15;;
48667;SDS011;34453;52.198;5.004;2022-08-01T05:43:31;3.95;;;3.05;;
48667;SDS011;34453;52.198;5.004;2022-08-01T05:45:56;3.95;;;3.38;;
48667;SDS011;34453;52.198;5.004;2022-08-01T05:48:23;4.05;;;3.65;;
48667;SDS011;34453;52.198;5.004;2022-08-01T05:50:49;11.27;;;4.40;;
48667;SDS011;34453;52.198;5.004;2022-08-01T05:53:14;6.10;;;3.85;;
48667;SDS011;34453;52.198;5.004;2022-08-01T05:55:40;6.68;;;3.95;;
48667;SDS011;34453;52.198;5.004;2022-08-01T05:58:05;8.07;;;4.07;;
48667;SDS011;34453;52.198;5.004;2022-08-01T06:00:31;6.60;;;3.47;;
48667;SDS011;34453;52.198;5.004;2022-08-01T06:02:56;3.67;;;3.17;;
48667;SDS011;34453;52.198;5.004;2022-08-01T06:05:22;8.25;;;2.97;;
48667;SDS011;34453;52.198;5.004;2022-08-01T06:07:47;10.63;;;3.63;;
48667;SDS011;34453;52.198;5.004;2022-08-01T06:10:12;16.30;;;3.58;;
48667;SDS011;34453;52.198;5.004;2022-08-01T06:12:38;11.05;;;3.50;;
48667;SDS011;34453;52.198;5.004;2022-08-01T06:15:04;9.48;;;2.95;;
48667;SDS011;34453;52.198;5.004;2022-08-01T06:17:30;8.20;;;2.97;;
48667;SDS011;34453;52.198;5.004;2022-08-01T06:19:55;9.88;;;3.03;;
48667;SDS011;34453;52.198;5.004;2022-08-01T06:22:21;11.25;;;3.50;;
48667;SDS011;34453;52.198;5.004;2022-08-01T06:24:46;12.57;;;3.53;;
48667;SDS011;34453;52.198;5.004;2022-08-01T06:27:12;11.23;;;3.63;;
48667;SDS011;34453;52.198;5.004;2022-08-01T06:29:37;15.32;;;2.83;;
48667;SDS011;34453;52.198;5.004;2022-08-01T06:32:03;14.20;;;3.30;;
48667;SDS011;34453;52.198;5.004;2022-08-01T06:34:28;9.60;;;3.03;;
48667;SDS011;34453;52.198;5.004;2022-08-01T06:36:54;11.10;;;3.58;;
48667;SDS011;34453;52.198;5.004;2022-08-01T06:39:19;18.55;;;3.97;;
48667;SDS011;34453;52.198;5.004;2022-08-01T06:41:45;8.05;;;2.70;;
48667;SDS011;34453;52.198;5.004;2022-08-01T06:44:13;14.25;;;3.83;;
48667;SDS011;34453;52.198;5.004;2022-08-01T06:46:39;10.73;;;2.97;;
48667;SDS011;34453;52.198;5.004;2022-08-01T06:49:04;10.63;;;3.15;;
48667;SDS011;34453;52.198;5.004;2022-08-01T06:51:29;12.45;;;3.38;;
48667;SDS011;34453;52.198;5.004;2022-08-01T06:53:55;15.48;;;2.90;;
48667;SDS011;34453;52.198;5.004;2022-08-01T06:56:21;6.93;;;2.75;;
48667;SDS011;34453;52.198;5.004;2022-08-01T06:58:46;6.78;;;2.17;;
48667;SDS011;34453;52.198;5.004;2022-08-01T07:01:11;14.48;;;2.63;;
48667;SDS011;34453;52.198;5.004;2022-08-01T07:03:37;7.97;;;2.58;;
48667;SDS011;34453;52.198;5.004;2022-08-01T07:06:03;7.65;;;2.42;;
48667;SDS011;34453;52.198;5.004;2022-08-01T07:08:29;11.93;;;2.63;;
48667;SDS011;34453;52.198;5.004;2022-08-01T07:10:55;9.10;;;2.45;;
48667;SDS011;34453;52.198;5.004;2022-08-01T07:13:26;9.15;;;2.15;;
48667;SDS011;34453;52.198;5.004;2022-08-01T07:15:52;10.55;;;2.35;;
48667;SDS011;34453;52.198;5.004;2022-08-01T07:18:21;8.95;;;2.60;;
48667;SDS011;34453;52.198;5.004;2022-08-01T07:20:48;8.40;;;1.83;;
48667;SDS011;34453;52.198;5.004;2022-08-01T07:23:14;8.50;;;1.90;;
48667;SDS011;34453;52.198;5.004;2022-08-01T07:25:40;6.90;;;2.08;;
48667;SDS011;34453;52.198;5.004;2022-08-01T07:28:06;9.00;;;2.42;;
48667;SDS011;34453;52.198;5.004;2022-08-01T07:30:32;8.68;;;1.92;;
48667;SDS011;34453;52.198;5.004;2022-08-01T07:32:58;9.43;;;2.05;;
48667;SDS011;34453;52.198;5.004;2022-08-01T07:35:24;11.57;;;2.28;;
48667;SDS011;34453;52.198;5.004;2022-08-01T07:37:53;11.32;;;3.55;;
48667;SDS011;34453;52.198;5.004;2022-08-01T07:40:18;5.97;;;1.90;;
48667;SDS011;34453;52.198;5.004;2022-08-01T07:42:47;7.07;;;2.40;;
48667;SDS011;34453;52.198;5.004;2022-08-01T07:45:13;6.72;;;2.30;;
48667;SDS011;34453;52.198;5.004;2022-08-01T07:47:40;12.68;;;1.98;;
48667;SDS011;34453;52.198;5.004;2022-08-01T07:50:05;12.35;;;2.10;;
48667;SDS011;34453;52.198;5.004;2022-08-01T07:52:31;7.55;;;1.60;;
48667;SDS011;34453;52.198;5.004;2022-08-01T07:54:57;10.57;;;2.97;;
48667;SDS011;34453;52.198;5.004;2022-08-01T07:57:23;15.63;;;4.32;;
48667;SDS011;34453;52.198;5.004;2022-08-01T07:59:50;11.35;;;2.17;;
48667;SDS011;34453;52.198;5.004;2022-08-01T08:02:15;14.30;;;2.97;;
48667;SDS011;34453;52.198;5.004;2022-08-01T08:04:41;12.95;;;2.65;;
48667;SDS011;34453;52.198;5.004;2022-08-01T08:07:06;8.70;;;2.28;;
48667;SDS011;34453;52.198;5.004;2022-08-01T08:09:32;10.45;;;1.95;;
48667;SDS011;34453;52.198;5.004;2022-08-01T08:11:58;12.10;;;1.85;;
48667;SDS011;34453;52.198;5.004;2022-08-01T08:14:23;11.88;;;2.17;;
48667;SDS011;34453;52.198;5.004;2022-08-01T08:16:49;6.95;;;2.17;;
48667;SDS011;34453;52.198;5.004;2022-08-01T08:19:15;10.80;;;2.67;;
48667;SDS011;34453;52.198;5.004;2022-08-01T08:21:41;12.27;;;1.95;;
48667;SDS011;34453;52.198;5.004;2022-08-01T08:24:07;11.15;;;2.42;;
48667;SDS011;34453;52.198;5.004;2022-08-01T08:26:47;5.10;;;1.70;;
48667;SDS011;34453;52.198;5.004;2022-08-01T08:29:13;11.60;;;2.67;;
48667;SDS011;34453;52.198;5.004;2022-08-01T08:31:39;7.75;;;2.00;;
48667;SDS011;34453;52.198;5.004;2022-08-01T08:34:05;6.25;;;2.05;;
48667;SDS011;34453;52.198;5.004;2022-08-01T08:36:31;9.05;;;2.53;;
48667;SDS011;34453;52.198;5.004;2022-08-01T08:38:59;9.82;;;1.95;;
48667;SDS011;34453;52.198;5.004;2022-08-01T08:41:25;10.98;;;2.60;;
48667;SDS011;34453;52.198;5.004;2022-08-01T08:43:51;8.13;;;1.80;;
48667;SDS011;34453;52.198;5.004;2022-08-01T08:46:18;6.95;;;2.40;;
48667;SDS011;34453;52.198;5.004;2022-08-01T08:48:45;4.45;;;1.75;;
48667;SDS011;34453;52.198;5.004;2022-08-01T08:51:11;4.80;;;1.60;;
48667;SDS011;34453;52.198;5.004;2022-08-01T08:53:38;13.32;;;2.15;;
48667;SDS011;34453;52.198;5.004;2022-08-01T08:56:09;10.13;;;2.25;;
48667;SDS011;34453;52.198;5.004;2022-08-01T08:58:38;9.48;;;2.47;;
48667;SDS011;34453;52.198;5.004;2022-08-01T09:01:07;10.43;;;2.00;;
48667;SDS011;34453;52.198;5.004;2022-08-01T09:03:33;8.48;;;1.90;;
48667;SDS011;34453;52.198;5.004;2022-08-01T09:05:59;7.18;;;1.67;;
48667;SDS011;34453;52.198;5.004;2022-08-01T09:08:25;10.00;;;2.17;;
48667;SDS011;34453;52.198;5.004;2022-08-01T09:10:51;12.35;;;2.25;;
48667;SDS011;34453;52.198;5.004;2022-08-01T09:13:17;5.57;;;1.83;;
48667;SDS011;34453;52.198;5.004;2022-08-01T09:15:50;9.23;;;2.35;;
48667;SDS011;34453;52.198;5.004;2022-08-01T09:23:50;11.90;;;2.38;;
48667;SDS011;34453;52.198;5.004;2022-08-01T09:28:56;8.23;;;2.42;;
48667;SDS011;34453;52.198;5.004;2022-08-01T09:31:22;13.80;;;2.33;;
48667;SDS011;34453;52.198;5.004;2022-08-01T09:33:53;8.63;;;1.60;;
48667;SDS011;34453;52.198;5.004;2022-08-01T09:36:22;7.50;;;2.25;;
48667;SDS011;34453;52.198;5.004;2022-08-01T09:38:50;4.80;;;1.95;;
48667;SDS011;34453;52.198;5.004;2022-08-01T09:41:17;7.90;;;3.03;;
48667;SDS011;34453;52.198;5.004;2022-08-01T09:43:55;7.85;;;2.08;;
48667;SDS011;34453;52.198;5.004;2022-08-01T09:46:21;13.52;;;3.30;;
48667;SDS011;34453;52.198;5.004;2022-08-01T09:48:59;10.75;;;2.65;;
48667;SDS011;34453;52.198;5.004;2022-08-01T09:51:36;7.95;;;2.00;;
48667;SDS011;34453;52.198;5.004;2022-08-01T09:54:03;8.65;;;2.00;;
48667;SDS011;34453;52.198;5.004;2022-08-01T09:56:37;10.93;;;3.47;;
48667;SDS011;34453;52.198;5.004;2022-08-01T09:59:04;9.50;;;2.60;;
48667;SDS011;34453;52.198;5.004;2022-08-01T10:01:43;7.30;;;1.40;;
48667;SDS011;34453;52.198;5.004;2022-08-01T10:04:18;6.95;;;2.53;;
48667;SDS011;34453;52.198;5.004;2022-08-01T10:06:49;6.90;;;1.85;;
48667;SDS011;34453;52.198;5.004;2022-08-01T10:09:31;8.68;;;2.63;;
48667;SDS011;34453;52.198;5.004;2022-08-01T10:11:59;7.90;;;2.10;;
48667;SDS011;34453;52.198;5.004;2022-08-01T10:14:25;7.32;;;2.20;;
48667;SDS011;34453;52.198;5.004;2022-08-01T10:16:52;7.45;;;2.38;;
48667;SDS011;34453;52.198;5.004;2022-08-01T10:19:18;8.95;;;2.03;;
48667;SDS011;34453;52.198;5.004;2022-08-01T10:21:47;13.35;;;3.63;;
48667;SDS011;34453;52.198;5.004;2022-08-01T10:24:16;9.88;;;1.83;;
48667;SDS011;34453;52.198;5.004;2022-08-01T10:26:44;13.32;;;1.88;;
48667;SDS011;34453;52.198;5.004;2022-08-01T10:29:14;6.90;;;1.50;;
48667;SDS011;34453;52.198;5.004;2022-08-01T10:31:43;14.15;;;3.15;;
48667;SDS011;34453;52.198;5.004;2022-08-01T10:34:09;6.90;;;1.77;;
48667;SDS011;34453;52.198;5.004;2022-08-01T10:36:36;2.67;;;1.50;;
48667;SDS011;34453;52.198;5.004;2022-08-01T10:39:05;9.93;;;2.05;;
48667;SDS011;34453;52.198;5.004;2022-08-01T10:41:31;2.95;;;1.45;;
48667;SDS011;34453;52.198;5.004;2022-08-01T10:44:00;9.02;;;2.25;;
48667;SDS011;34453;52.198;5.004;2022-08-01T10:46:26;7.97;;;1.75;;
48667;SDS011;34453;52.198;5.004;2022-08-01T10:48:56;11.60;;;3.05;;
48667;SDS011;34453;52.198;5.004;2022-08-01T10:51:28;6.13;;;1.67;;
48667;SDS011;34453;52.198;5.004;2022-08-01T10:53:54;5.68;;;1.98;;
48667;SDS011;34453;52.198;5.004;2022-08-01T10:56:20;8.55;;;1.92;;
48667;SDS011;34453;52.198;5.004;2022-08-01T10:58:47;9.23;;;2.15;;
48667;SDS011;34453;52.198;5.004;2022-08-01T11:03:55;4.07;;;1.83;;
48667;SDS011;34453;52.198;5.004;2022-08-01T11:11:59;5.20;;;2.08;;
48667;SDS011;34453;52.198;5.004;2022-08-01T11:14:35;4.25;;;1.58;;
48667;SDS011;34453;52.198;5.004;2022-08-01T11:17:53;3.63;;;1.15;;
48667;SDS011;34453;52.198;5.004;2022-08-01T11:30:49;3.88;;;1.40;;
48667;SDS011;34453;52.198;5.004;2022-08-01T11:38:46;4.45;;;1.67;;
48667;SDS011;34453;52.198;5.004;2022-08-01T11:41:14;4.65;;;1.27;;
48667;SDS011;34453;52.198;5.004;2022-08-01T11:44:04;7.95;;;1.70;;
48667;SDS011;34453;52.198;5.004;2022-08-01T11:47:14;4.80;;;0.85;;
48667;SDS011;34453;52.198;5.004;2022-08-01T11:52:07;3.50;;;1.20;;
48667;SDS011;34453;52.198;5.004;2022-08-01T11:54:40;2.63;;;0.65;;
48667;SDS011;34453;52.198;5.004;2022-08-01T11:57:07;1.85;;;0.90;;
48667;SDS011;34453;52.198;5.004;2022-08-01T11:59:41;2.97;;;1.05;;
48667;SDS011;34453;52.198;5.004;2022-08-01T12:02:21;7.75;;;1.35;;
48667;SDS011;34453;52.198;5.004;2022-08-01T12:04:59;8.63;;;2.15;;
48667;SDS011;34453;52.198;5.004;2022-08-01T12:07:26;4.78;;;0.70;;
48667;SDS011;34453;52.198;5.004;2022-08-01T12:10:13;0.93;;;0.70;;
48667;SDS011;34453;52.198;5.004;2022-08-01T12:12:46;7.97;;;1.27;;
48667;SDS011;34453;52.198;5.004;2022-08-01T12:15:22;3.10;;;1.30;;
48667;SDS011;34453;52.198;5.004;2022-08-01T12:17:50;5.35;;;1.50;;
48667;SDS011;34453;52.198;5.004;2022-08-01T12:20:20;5.47;;;1.50;;
48667;SDS011;34453;52.198;5.004;2022-08-01T12:22:47;3.90;;;1.20;;
48667;SDS011;34453;52.198;5.004;2022-08-01T12:25:14;5.38;;;1.48;;
48667;SDS011;34453;52.198;5.004;2022-08-01T12:27:41;4.70;;;1.27;;
48667;SDS011;34453;52.198;5.004;2022-08-01T12:30:09;8.75;;;1.30;;
48667;SDS011;34453;52.198;5.004;2022-08-01T12:32:38;3.67;;;1.33;;
48667;SDS011;34453;52.198;5.004;2022-08-01T12:35:08;3.63;;;1.17;;
48667;SDS011;34453;52.198;5.004;2022-08-01T12:37:39;4.37;;;1.07;;
48667;SDS011;34453;52.198;5.004;2022-08-01T12:40:13;3.63;;;1.42;;
48667;SDS011;34453;52.198;5.004;2022-08-01T12:42:41;3.00;;;1.48;;
48667;SDS011;34453;52.198;5.004;2022-08-01T12:45:09;6.50;;;1.48;;
48667;SDS011;34453;52.198;5.004;2022-08-01T12:47:36;5.35;;;2.35;;
48667;SDS011;34453;52.198;5.004;2022-08-01T12:50:05;8.57;;;1.65;;
48667;SDS011;34453;52.198;5.004;2022-08-01T12:52:33;10.77;;;1.88;;
48667;SDS011;34453;52.198;5.004;2022-08-01T12:57:42;6.18;;;1.75;;
48667;SDS011;34453;52.198;5.004;2022-08-01T13:00:20;3.95;;;1.55;;
48667;SDS011;34453;52.198;5.004;2022-08-01T13:02:48;5.18;;;1.25;;
48667;SDS011;34453;52.198;5.004;2022-08-01T13:05:16;10.50;;;1.42;;
48667;SDS011;34453;52.198;5.004;2022-08-01T13:07:46;4.85;;;1.35;;
48667;SDS011;34453;52.198;5.004;2022-08-01T13:10:25;2.95;;;1.10;;
48667;SDS011;34453;52.198;5.004;2022-08-01T13:12:54;5.78;;;1.48;;
48667;SDS011;34453;52.198;5.004;2022-08-01T13:15:22;10.07;;;1.65;;
48667;SDS011;34453;52.198;5.004;2022-08-01T13:17:52;4.88;;;1.50;;
48667;SDS011;34453;52.198;5.004;2022-08-01T13:20:36;3.78;;;0.82;;
48667;SDS011;34453;52.198;5.004;2022-08-01T13:23:15;7.47;;;1.27;;
48667;SDS011;34453;52.198;5.004;2022-08-01T13:25:49;2.88;;;1.17;;
48667;SDS011;34453;52.198;5.004;2022-08-01T13:28:17;10.82;;;1.55;;
48667;SDS011;34453;52.198;5.004;2022-08-01T13:30:54;3.13;;;1.45;;
48667;SDS011;34453;52.198;5.004;2022-08-01T13:33:25;6.22;;;1.83;;
48667;SDS011;34453;52.198;5.004;2022-08-01T13:35:56;7.45;;;1.90;;
48667;SDS011;34453;52.198;5.004;2022-08-01T13:38:21;10.68;;;2.45;;
48667;SDS011;34453;52.198;5.004;2022-08-01T13:41:05;2.97;;;1.00;;
48667;SDS011;34453;52.198;5.004;2022-08-01T13:43:31;3.78;;;1.20;;
48667;SDS011;34453;52.198;5.004;2022-08-01T13:45:57;3.90;;;1.13;;
48667;SDS011;34453;52.198;5.004;2022-08-01T13:48:22;3.45;;;1.15;;
48667;SDS011;34453;52.198;5.004;2022-08-01T13:50:48;6.47;;;1.00;;
48667;SDS011;34453;52.198;5.004;2022-08-01T13:53:15;5.63;;;1.10;;
48667;SDS011;34453;52.198;5.004;2022-08-01T13:55:42;4.05;;;1.63;;
48667;SDS011;34453;52.198;5.004;2022-08-01T13:58:08;7.47;;;1.67;;
48667;SDS011;34453;52.198;5.004;2022-08-01T14:00:33;3.40;;;1.20;;
48667;SDS011;34453;52.198;5.004;2022-08-01T14:02:59;3.00;;;0.85;;
48667;SDS011;34453;52.198;5.004;2022-08-01T14:05:24;5.80;;;1.40;;
48667;SDS011;34453;52.198;5.004;2022-08-01T14:07:50;7.07;;;1.30;;
48667;SDS011;34453;52.198;5.004;2022-08-01T14:10:15;9.68;;;1.20;;
48667;SDS011;34453;52.198;5.004;2022-08-01T14:12:40;2.85;;;1.10;;
48667;SDS011;34453;52.198;5.004;2022-08-01T14:15:06;7.45;;;1.67;;
48667;SDS011;34453;52.198;5.004;2022-08-01T14:17:32;6.15;;;1.40;;
48667;SDS011;34453;52.198;5.004;2022-08-01T14:19:57;11.25;;;1.77;;
48667;SDS011;34453;52.198;5.004;2022-08-01T14:22:24;7.07;;;1.55;;
48667;SDS011;34453;52.198;5.004;2022-08-01T14:24:49;2.20;;;1.45;;
48667;SDS011;34453;52.198;5.004;2022-08-01T14:27:15;3.85;;;1.75;;
48667;SDS011;34453;52.198;5.004;2022-08-01T14:29:40;2.15;;;1.30;;
48667;SDS011;34453;52.198;5.004;2022-08-01T14:32:06;5.25;;;1.55;;
48667;SDS011;34453;52.198;5.004;2022-08-01T14:34:31;5.75;;;1.45;;
48667;SDS011;34453;52.198;5.004;2022-08-01T14:36:56;5.35;;;1.58;;
48667;SDS011;34453;52.198;5.004;2022-08-01T14:39:22;3.63;;;1.45;;
48667;SDS011;34453;52.198;5.004;2022-08-01T14:41:47;8.07;;;1.25;;
48667;SDS011;34453;52.198;5.004;2022-08-01T14:44:13;2.53;;;1.35;;
48667;SDS011;34453;52.198;5.004;2022-08-01T14:46:39;9.05;;;1.40;;
48667;SDS011;34453;52.198;5.004;2022-08-01T14:49:06;5.60;;;1.38;;
48667;SDS011;34453;52.198;5.004;2022-08-01T14:51:32;3.72;;;1.35;;
48667;SDS011;34453;52.198;5.004;2022-08-01T14:53:59;10.50;;;1.95;;
48667;SDS011;34453;52.198;5.004;2022-08-01T14:56:24;3.75;;;1.05;;
48667;SDS011;34453;52.198;5.004;2022-08-01T14:58:50;2.75;;;1.10;;
48667;SDS011;34453;52.198;5.004;2022-08-01T15:01:16;3.15;;;0.98;;
48667;SDS011;34453;52.198;5.004;2022-08-01T15:03:42;4.40;;;1.30;;
48667;SDS011;34453;52.198;5.004;2022-08-01T15:06:08;4.40;;;1.35;;
48667;SDS011;34453;52.198;5.004;2022-08-01T15:08:36;1.85;;;0.98;;
48667;SDS011;34453;52.198;5.004;2022-08-01T15:11:01;4.10;;;1.70;;
48667;SDS011;34453;52.198;5.004;2022-08-01T15:13:27;6.15;;;1.30;;
48667;SDS011;34453;52.198;5.004;2022-08-01T15:15:53;5.40;;;1.25;;
48667;SDS011;34453;52.198;5.004;2022-08-01T15:18:18;3.22;;;1.60;;
48667;SDS011;34453;52.198;5.004;2022-08-01T15:20:44;7.28;;;0.90;;
48667;SDS011;34453;52.198;5.004;2022-08-01T15:23:10;3.47;;;1.40;;
48667;SDS011;34453;52.198;5.004;2022-08-01T15:25:35;9.57;;;2.60;;
48667;SDS011;34453;52.198;5.004;2022-08-01T15:28:01;4.57;;;1.10;;
48667;SDS011;34453;52.198;5.004;2022-08-01T15:30:26;2.65;;;1.20;;
48667;SDS011;34453;52.198;5.004;2022-08-01T15:32:52;4.32;;;1.25;;
48667;SDS011;34453;52.198;5.004;2022-08-01T15:35:17;3.17;;;0.90;;
48667;SDS011;34453;52.198;5.004;2022-08-01T15:37:42;7.00;;;1.88;;
48667;SDS011;34453;52.198;5.004;2022-08-01T15:40:08;2.30;;;0.85;;
48667;SDS011;34453;52.198;5.004;2022-08-01T15:42:35;4.50;;;1.17;;
48667;SDS011;34453;52.198;5.004;2022-08-01T15:45:00;3.10;;;1.00;;
48667;SDS011;34453;52.198;5.004;2022-08-01T15:47:26;3.63;;;0.90;;